createdAt,value
2023-04-14T00:02:06.070Z,99486.19
2023-04-14T00:07:08.572Z,99499.63
2023-04-14T00:12:10.941Z,99290.16
2023-04-14T00:17:13.534Z,99278.41
2023-04-14T00:22:16.028Z,99575.84
2023-04-14T00:27:18.440Z,99297.44
2023-04-14T00:32:21.102Z,99087.53
2023-04-14T00:37:24.535Z,99016.72
2023-04-14T00:42:27.762Z,99567.50
2023-04-14T00:47:30.252Z,99333.56
2023-04-14T00:52:32.845Z,99486.38
2023-04-14T00:57:36.774Z,99638.44
2023-04-14T01:02:39.394Z,99188.78
2023-04-14T01:07:42.008Z,99318.13
2023-04-14T01:13:17.243Z,99454.72
2023-04-14T01:18:36.916Z,99677.50
2023-04-14T01:24:08.975Z,99253.91
2023-04-14T01:29:36.233Z,99657.19
2023-04-14T01:34:46.342Z,99045.91
2023-04-14T01:39:55.194Z,99658.34
2023-04-14T01:45:00.216Z,99678.41
2023-04-14T01:50:07.130Z,99133.44
2023-04-14T01:55:10.654Z,99695.44
2023-04-14T02:00:48.013Z,99695.53
2023-04-14T02:05:52.958Z,99678.06
2023-04-14T02:10:56.564Z,99695.44
2023-04-14T02:16:00.379Z,99650.09
2023-04-14T02:21:04.664Z,99514.06
2023-04-14T02:26:13.569Z,99637.31
2023-04-14T02:31:21.705Z,99642.19
2023-04-14T02:36:46.376Z,99718.59
2023-04-14T02:41:57.122Z,99654.78
2023-04-14T02:47:08.560Z,99739.72
2023-04-14T02:52:17.235Z,99716.50
2023-04-14T02:57:21.265Z,99599.59
2023-04-14T03:02:25.631Z,99719.56
2023-04-14T03:07:37.848Z,99750.06
2023-04-14T03:12:41.722Z,99728.09
2023-04-14T03:17:45.817Z,99706.91
2023-04-14T03:22:50.748Z,99654.22
2023-04-14T03:27:53.855Z,99645.66
2023-04-14T03:33:01.621Z,99656.97
2023-04-14T03:38:09.367Z,99797.63
2023-04-14T03:43:13.234Z,99782.19
2023-04-14T03:48:18.898Z,99741.13
2023-04-14T03:53:26.119Z,99745.34
2023-04-14T03:58:29.924Z,99783.38
2023-04-14T04:03:35.090Z,99729.53
2023-04-14T04:08:38.485Z,99632.72
2023-04-14T04:13:42.295Z,99799.97
2023-04-14T04:18:47.323Z,99600.63
2023-04-14T04:23:52.852Z,99809.56
2023-04-14T04:28:58.633Z,99637.91
2023-04-14T04:34:03.664Z,99782.19
2023-04-14T04:39:07.943Z,99801.97
2023-04-14T04:44:14.857Z,99679.78
2023-04-14T04:49:17.380Z,99824.75
2023-04-14T04:54:21.056Z,99816.28
2023-04-14T04:59:23.591Z,99746.56
2023-04-14T05:04:26.014Z,99610.50
2023-04-14T05:09:28.434Z,99821.34
2023-04-14T05:14:30.981Z,99638.41
2023-04-14T05:19:33.351Z,99828.47
2023-04-14T05:24:35.795Z,99674.72
2023-04-14T05:29:38.318Z,99719.66
2023-04-14T05:34:42.190Z,99697.03
2023-04-14T05:39:45.342Z,99713.22
2023-04-14T05:44:47.740Z,99778.59
2023-04-14T05:49:50.188Z,99785.81
2023-04-14T05:54:52.646Z,99721.44
2023-04-14T05:59:56.985Z,99822.53
2023-04-14T06:05:00.724Z,99799.44
2023-04-14T06:10:03.870Z,99693.75
2023-04-14T06:15:06.670Z,99782.41
2023-04-14T06:20:09.650Z,99800.44
2023-04-14T06:25:12.151Z,99817.53
2023-04-14T06:30:18.020Z,99779.09
2023-04-14T06:35:31.933Z,99554.34
2023-04-14T06:40:35.223Z,99699.31
2023-04-14T06:45:37.727Z,99715.03
2023-04-14T06:50:40.615Z,99760.16
2023-04-14T06:55:43.988Z,99589.38
2023-04-14T07:00:46.498Z,99794.03
2023-04-14T07:05:57.999Z,99856.38
2023-04-14T07:11:06.015Z,99800.84
2023-04-14T07:16:12.037Z,99750.50
2023-04-14T07:21:14.456Z,99861.75
2023-04-14T07:26:16.905Z,99732.22
2023-04-14T07:31:19.355Z,99861.53
2023-04-14T07:36:22.058Z,99742.41
2023-04-14T07:41:24.999Z,99883.06
2023-04-14T07:46:28.060Z,99697.41
2023-04-14T07:51:30.485Z,99749.50
2023-04-14T07:56:33.053Z,99836.97
2023-04-14T08:01:35.390Z,99822.25
2023-04-14T08:06:37.721Z,99838.19
2023-04-14T08:11:40.110Z,99604.69
2023-04-14T08:16:43.027Z,99763.72
2023-04-14T08:21:45.434Z,99779.47
2023-04-14T08:26:48.015Z,99815.56
2023-04-14T08:31:50.398Z,99797.41
2023-04-14T08:36:53.083Z,99476.06
2023-04-14T08:41:56.134Z,99827.50
2023-04-14T08:46:58.940Z,99702.41
2023-04-14T08:52:03.662Z,99797.91
2023-04-14T08:57:08.135Z,99869.84
2023-04-14T09:02:11.307Z,99829.75
2023-04-14T09:07:14.461Z,99796.56
2023-04-14T09:12:18.050Z,99847.44
2023-04-14T09:17:21.024Z,99703.94
2023-04-14T09:22:23.450Z,99802.66
2023-04-14T09:27:26.738Z,99752.94
2023-04-14T09:32:29.216Z,99758.50
2023-04-14T09:37:43.761Z,99765.00
2023-04-14T09:42:47.438Z,99851.00
2023-04-14T09:48:06.538Z,99797.72
2023-04-14T09:53:09.129Z,99769.88
2023-04-14T09:58:11.907Z,99792.75
2023-04-14T10:03:14.415Z,99859.22
2023-04-14T10:08:17.296Z,99873.19
2023-04-14T10:13:19.776Z,99777.81
2023-04-14T10:18:22.133Z,99814.56
2023-04-14T10:23:24.956Z,99834.81
2023-04-14T10:28:27.666Z,99803.31
2023-04-14T10:33:30.124Z,99854.13
2023-04-14T10:38:41.139Z,99917.06
2023-04-14T10:43:43.621Z,99632.78
2023-04-14T10:48:49.658Z,99610.78
2023-04-14T10:53:55.899Z,99905.88
2023-04-14T10:58:59.203Z,99628.59
2023-04-14T11:04:19.297Z,99908.69
2023-04-14T11:09:30.918Z,99911.22
2023-04-14T11:14:36.255Z,99909.47
2023-04-14T11:19:40.448Z,99909.44
2023-04-14T11:24:43.024Z,99800.94
2023-04-14T11:29:48.991Z,99851.00
2023-04-14T11:34:51.833Z,99887.91
2023-04-14T11:39:54.219Z,99847.63
2023-04-14T11:45:00.169Z,99874.72
2023-04-14T11:50:05.203Z,99865.06
2023-04-14T11:55:08.055Z,99858.97
2023-04-14T12:00:14.938Z,99901.03
2023-04-14T12:05:22.304Z,99859.03
2023-04-14T12:10:25.387Z,99910.66
2023-04-14T12:15:29.252Z,99901.94
2023-04-14T12:21:02.077Z,99866.97
2023-04-14T12:26:09.299Z,99887.03
2023-04-14T12:31:11.933Z,99918.50
2023-04-14T12:36:14.455Z,99866.13
2023-04-14T12:41:23.704Z,99853.97
2023-04-14T12:46:26.983Z,99806.75
2023-04-14T12:51:29.464Z,99902.91
2023-04-14T12:56:31.776Z,99838.16
2023-04-14T13:01:34.230Z,99800.47
2023-04-14T13:06:36.574Z,99905.50
2023-04-14T13:11:38.889Z,99861.75
2023-04-14T13:16:41.325Z,99798.75
2023-04-14T13:21:43.888Z,99889.69
2023-04-14T13:26:47.935Z,99888.78
2023-04-14T13:31:50.349Z,99884.41
2023-04-14T13:36:52.702Z,99765.44
2023-04-14T13:41:55.091Z,99844.19
2023-04-14T13:46:57.693Z,99835.28
2023-04-14T13:52:00.195Z,99890.34
2023-04-14T13:57:02.548Z,99863.16
2023-04-14T14:02:24.237Z,99846.47
2023-04-14T14:07:27.044Z,99773.75
2023-04-14T14:12:29.467Z,99935.50
2023-04-14T14:17:31.987Z,99895.19
2023-04-14T14:22:34.356Z,99832.06
2023-04-14T14:27:36.780Z,99923.13
2023-04-14T14:32:39.156Z,99860.72
2023-04-14T14:37:43.161Z,99939.50
2023-04-14T14:42:52.241Z,99911.38
2023-04-14T14:47:54.714Z,99764.00
2023-04-14T14:52:57.274Z,99927.66
2023-04-14T14:57:59.552Z,99928.41
2023-04-14T15:03:02.182Z,99838.81
2023-04-14T15:08:04.736Z,99950.81
2023-04-14T15:13:07.474Z,99928.59
2023-04-14T15:18:10.930Z,99796.94
2023-04-14T15:23:13.221Z,99848.31
2023-04-14T15:28:17.080Z,99938.75
2023-04-14T15:33:19.365Z,99950.81
2023-04-14T15:38:21.732Z,99846.19
2023-04-14T15:43:24.004Z,99924.91
2023-04-14T15:48:26.892Z,99858.13
2023-04-14T15:53:29.211Z,99956.22
2023-04-14T15:58:31.545Z,99850.75
2023-04-14T16:03:34.087Z,99996.75
2023-04-14T16:08:36.816Z,100036.22
2023-04-14T16:13:39.299Z,99973.81
2023-04-14T16:18:41.953Z,100002.50
2023-04-14T16:23:45.109Z,99970.72
2023-04-14T16:28:47.674Z,100015.22
2023-04-14T16:33:50.075Z,100072.16
2023-04-14T16:38:53.106Z,100077.25
2023-04-14T16:43:57.623Z,99952.34
2023-04-14T16:49:00.283Z,100055.72
2023-04-14T16:54:03.680Z,100090.50
2023-04-14T16:59:08.258Z,100030.47
2023-04-14T17:04:11.395Z,100069.59
2023-04-14T17:09:14.373Z,100084.28
2023-04-14T17:14:17.056Z,100121.84
2023-04-14T17:19:20.045Z,100103.13
2023-04-14T17:24:23.564Z,100036.84
2023-04-14T17:29:26.111Z,100118.34
2023-04-14T17:34:29.740Z,100119.16
2023-04-14T17:39:32.141Z,100054.59
2023-04-14T17:44:35.166Z,100067.44
2023-04-14T17:49:37.498Z,100153.19
2023-04-14T17:54:52.181Z,100085.19
2023-04-14T17:59:54.682Z,100058.44
2023-04-14T18:05:00.081Z,100089.25
2023-04-14T18:10:03.308Z,100162.34
2023-04-14T18:15:08.742Z,100005.78
2023-04-14T18:20:11.853Z,100003.38
2023-04-14T18:25:14.222Z,100024.50
2023-04-14T18:30:17.253Z,100185.44
2023-04-14T18:35:20.049Z,100169.22
2023-04-14T18:40:22.778Z,100111.78
2023-04-14T18:45:26.517Z,100062.84
2023-04-14T18:50:29.250Z,100157.94
2023-04-14T18:55:40.460Z,100176.22
2023-04-14T19:00:47.947Z,100139.91
2023-04-14T19:05:50.880Z,100198.88
2023-04-14T19:10:53.253Z,100153.28
2023-04-14T19:16:08.685Z,100081.50
2023-04-14T19:21:11.357Z,100204.25
2023-04-14T19:26:14.433Z,100146.41
2023-04-14T19:31:21.647Z,100191.09
2023-04-14T19:36:24.391Z,100182.69
2023-04-14T19:41:26.872Z,100176.31
2023-04-14T19:46:29.282Z,100215.59
2023-04-14T19:51:33.196Z,100073.38
2023-04-14T19:56:35.689Z,100140.19
2023-04-14T20:01:38.402Z,100103.31
2023-04-14T20:06:44.048Z,100055.38
2023-04-14T20:11:47.273Z,100194.50
2023-04-14T20:16:49.673Z,100208.19
2023-04-14T20:21:52.192Z,100267.91
2023-04-14T20:26:55.826Z,100141.38
2023-04-14T20:31:58.146Z,99687.56
2023-04-14T20:37:01.064Z,100291.44
2023-04-14T20:42:03.381Z,100292.91
2023-04-14T20:47:05.946Z,100152.75
2023-04-14T20:52:08.374Z,100223.47
2023-04-14T20:57:10.960Z,100214.72
2023-04-14T21:02:13.336Z,100318.22
2023-04-14T21:07:23.589Z,100344.75
2023-04-14T21:12:26.034Z,100282.19
2023-04-14T21:17:38.075Z,100283.41
2023-04-14T21:22:40.451Z,100182.09
2023-04-14T21:27:43.370Z,100336.44
2023-04-14T21:32:45.908Z,100311.22
2023-04-14T21:37:48.229Z,100234.06
2023-04-14T21:42:51.112Z,100379.38
2023-04-14T21:47:53.383Z,100135.56
2023-04-14T21:52:55.733Z,100201.66
2023-04-14T21:57:59.282Z,100290.63
2023-04-14T22:03:01.776Z,100355.19
2023-04-14T22:08:04.212Z,100394.94
2023-04-14T22:13:06.750Z,100288.47
2023-04-14T22:18:10.110Z,100372.88
2023-04-14T22:23:13.521Z,100373.69
2023-04-14T22:28:16.141Z,100327.13
2023-04-14T22:33:18.419Z,100409.28
2023-04-14T22:38:20.624Z,100250.56
2023-04-14T22:43:23.073Z,100210.06
2023-04-14T22:48:25.305Z,100368.25
2023-04-14T22:53:27.665Z,100331.06
2023-04-14T22:58:32.415Z,100391.53
2023-04-14T23:03:35.661Z,100442.34
2023-04-14T23:08:38.203Z,100359.72
2023-04-14T23:13:40.498Z,100432.38
2023-04-14T23:18:43.275Z,100480.19
2023-04-14T23:23:45.566Z,100478.34
2023-04-14T23:28:47.883Z,100243.47
2023-04-14T23:33:53.119Z,100321.63
2023-04-14T23:38:55.486Z,100360.88
2023-04-14T23:43:58.044Z,100345.81
2023-04-14T23:49:03.095Z,100339.94
2023-04-14T23:54:22.574Z,100475.34
2023-04-14T23:59:24.959Z,100365.72
